Terminal Aerodrome Forecast
Issued by NWS

Home | Current Version | Previous Version | Text Only | Print | Product List | Glossary On
Versions: 1 2 3 4 5 6 7 8 9 10 11 12 13 14 15
000
FTUS46 KOTX 311120
TAFCOE
TAF
KCOE 311120Z 3112/0112 04003KT P6SM SKC
     FM311500 05008KT P6SM FEW250
     FM312100 35005KT P6SM FEW150 SCT250
     FM010400 07004KT P6SM SCT150 BKN200
      AMD LTD TO CLD AND VIS=

USA.gov is the U.S. government's official web portal to all federal, state and local government web resources and services.